sensor_id;sensor_type;location;lat;lon;timestamp;pressure;altitude;pressure_sealevel;temperature;humidity
78117;BME280;69042;59.120;37.904;2023-04-07T00:00:55;101684.75;;;1.69;51.23
78117;BME280;69042;59.120;37.904;2023-04-07T00:03:21;101688.19;;;1.67;50.85
78117;BME280;69042;59.120;37.904;2023-04-07T00:05:48;101684.66;;;1.64;51.40
78117;BME280;69042;59.120;37.904;2023-04-07T00:08:14;101682.09;;;1.64;50.86
78117;BME280;69042;59.120;37.904;2023-04-07T00:10:40;101687.22;;;1.62;51.44
78117;BME280;69042;59.120;37.904;2023-04-07T00:13:06;101688.00;;;1.60;51.52
78117;BME280;69042;59.120;37.904;2023-04-07T00:15:33;101680.25;;;1.58;51.42
78117;BME280;69042;59.120;37.904;2023-04-07T00:17:59;101683.66;;;1.57;51.12
78117;BME280;69042;59.120;37.904;2023-04-07T00:20:25;101687.91;;;1.55;51.32
78117;BME280;69042;59.120;37.904;2023-04-07T00:22:51;101687.91;;;1.55;51.75
78117;BME280;69042;59.120;37.904;2023-04-07T00:25:17;101692.19;;;1.55;51.64
78117;BME280;69042;59.120;37.904;2023-04-07T00:27:43;101685.28;;;1.52;51.49
78117;BME280;69042;59.120;37.904;2023-04-07T00:30:09;101691.28;;;1.51;51.31
78117;BME280;69042;59.120;37.904;2023-04-07T00:32:36;101686.91;;;1.49;51.96
78117;BME280;69042;59.120;37.904;2023-04-07T00:35:02;101692.06;;;1.47;51.54
78117;BME280;69042;59.120;37.904;2023-04-07T00:37:28;101684.25;;;1.44;51.75
78117;BME280;69042;59.120;37.904;2023-04-07T00:39:54;101682.53;;;1.43;52.02
78117;BME280;69042;59.120;37.904;2023-04-07T00:42:22;101686.78;;;1.41;52.04
78117;BME280;69042;59.120;37.904;2023-04-07T00:44:48;101686.72;;;1.39;51.98
78117;BME280;69042;59.120;37.904;2023-04-07T00:47:14;101684.16;;;1.38;51.96
78117;BME280;69042;59.120;37.904;2023-04-07T00:49:40;101685.78;;;1.34;51.56
78117;BME280;69042;59.120;37.904;2023-04-07T00:52:07;101688.31;;;1.33;51.58
78117;BME280;69042;59.120;37.904;2023-04-07T00:54:37;101686.53;;;1.30;51.82
78117;BME280;69042;59.120;37.904;2023-04-07T00:57:05;101681.38;;;1.29;51.83
78117;BME280;69042;59.120;37.904;2023-04-07T00:59:31;101685.63;;;1.28;52.13
78117;BME280;69042;59.120;37.904;2023-04-07T01:04:34;101689.00;;;1.24;51.87
78117;BME280;69042;59.120;37.904;2023-04-07T01:07:27;101688.97;;;1.22;52.74
78117;BME280;69042;59.120;37.904;2023-04-07T01:10:05;101689.78;;;1.21;51.82
78117;BME280;69042;59.120;37.904;2023-04-07T01:12:53;101692.31;;;1.18;51.58
78117;BME280;69042;59.120;37.904;2023-04-07T01:15:26;101691.44;;;1.18;51.94
78117;BME280;69042;59.120;37.904;2023-04-07T01:18:23;101695.69;;;1.16;52.31
78117;BME280;69042;59.120;37.904;2023-04-07T01:20:55;101689.63;;;1.14;52.11
78117;BME280;69042;59.120;37.904;2023-04-07T01:23:38;101696.44;;;1.12;52.29
78117;BME280;69042;59.120;37.904;2023-04-07T01:26:18;101697.25;;;1.09;52.29
78117;BME280;69042;59.120;37.904;2023-04-07T01:28:48;101696.41;;;1.09;52.60
78117;BME280;69042;59.120;37.904;2023-04-07T01:31:22;101689.47;;;1.06;51.86
78117;BME280;69042;59.120;37.904;2023-04-07T01:33:51;101691.94;;;1.01;52.45
78117;BME280;69042;59.120;37.904;2023-04-07T01:36:20;101697.84;;;0.97;52.72
78117;BME280;69042;59.120;37.904;2023-04-07T01:38:48;101696.09;;;0.95;52.33
78117;BME280;69042;59.120;37.904;2023-04-07T01:41:16;101698.63;;;0.93;52.66
78117;BME280;69042;59.120;37.904;2023-04-07T01:43:44;101688.25;;;0.90;52.77
78117;BME280;69042;59.120;37.904;2023-04-07T01:46:11;101686.50;;;0.89;52.64
78117;BME280;69042;59.120;37.904;2023-04-07T01:48:38;101688.16;;;0.87;52.73
78117;BME280;69042;59.120;37.904;2023-04-07T01:51:05;101690.75;;;0.87;52.74
78117;BME280;69042;59.120;37.904;2023-04-07T01:53:33;101689.84;;;0.85;52.51
78117;BME280;69042;59.120;37.904;2023-04-07T01:56:03;101689.03;;;0.86;52.87
78117;BME280;69042;59.120;37.904;2023-04-07T01:58:32;101698.41;;;0.84;53.17
78117;BME280;69042;59.120;37.904;2023-04-07T02:00:58;101698.34;;;0.82;52.86
78117;BME280;69042;59.120;37.904;2023-04-07T02:03:38;101697.50;;;0.82;53.09
78117;BME280;69042;59.120;37.904;2023-04-07T02:06:06;101697.44;;;0.80;53.22
78117;BME280;69042;59.120;37.904;2023-04-07T02:08:35;101700.88;;;0.79;52.77
78117;BME280;69042;59.120;37.904;2023-04-07T02:11:07;101700.88;;;0.79;52.65
78117;BME280;69042;59.120;37.904;2023-04-07T02:13:36;101703.34;;;0.76;52.97
78117;BME280;69042;59.120;37.904;2023-04-07T02:16:05;101700.75;;;0.75;52.91
78117;BME280;69042;59.120;37.904;2023-04-07T02:18:31;101690.38;;;0.70;52.96
78117;BME280;69042;59.120;37.904;2023-04-07T02:20:59;101696.38;;;0.71;53.14
78117;BME280;69042;59.120;37.904;2023-04-07T02:23:26;101698.91;;;0.69;53.37
78117;BME280;69042;59.120;37.904;2023-04-07T02:25:55;101699.75;;;0.68;53.53
78117;BME280;69042;59.120;37.904;2023-04-07T02:28:21;101698.91;;;0.69;53.13
78117;BME280;69042;59.120;37.904;2023-04-07T02:30:47;101697.97;;;0.66;53.43
78117;BME280;69042;59.120;37.904;2023-04-07T02:33:13;101701.31;;;0.63;53.59
78117;BME280;69042;59.120;37.904;2023-04-07T02:35:42;101703.03;;;0.62;53.19
78117;BME280;69042;59.120;37.904;2023-04-07T02:38:08;101703.88;;;0.61;53.67
78117;BME280;69042;59.120;37.904;2023-04-07T02:40:35;101708.09;;;0.59;53.41
78117;BME280;69042;59.120;37.904;2023-04-07T02:43:01;101714.97;;;0.59;53.82
78117;BME280;69042;59.120;37.904;2023-04-07T02:45:27;101710.63;;;0.58;54.13
78117;BME280;69042;59.120;37.904;2023-04-07T02:47:53;101712.34;;;0.57;53.96
78117;BME280;69042;59.120;37.904;2023-04-07T02:50:19;101712.28;;;0.56;53.69
78117;BME280;69042;59.120;37.904;2023-04-07T02:52:46;101709.72;;;0.54;53.31
78117;BME280;69042;59.120;37.904;2023-04-07T02:55:14;101709.72;;;0.54;53.80
78117;BME280;69042;59.120;37.904;2023-04-07T02:57:40;101709.72;;;0.54;53.75
78117;BME280;69042;59.120;37.904;2023-04-07T03:00:19;101717.44;;;0.54;53.66
78117;BME280;69042;59.120;37.904;2023-04-07T03:03:00;101722.56;;;0.54;53.98
78117;BME280;69042;59.120;37.904;2023-04-07T03:05:29;101718.25;;;0.53;54.27
78117;BME280;69042;59.120;37.904;2023-04-07T03:07:56;101719.94;;;0.53;53.93
78117;BME280;69042;59.120;37.904;2023-04-07T03:10:22;101726.81;;;0.54;53.80
78117;BME280;69042;59.120;37.904;2023-04-07T03:12:49;101728.56;;;0.55;54.15
78117;BME280;69042;59.120;37.904;2023-04-07T03:15:15;101727.72;;;0.56;54.27
78117;BME280;69042;59.120;37.904;2023-04-07T03:17:45;101731.25;;;0.59;54.22
78117;BME280;69042;59.120;37.904;2023-04-07T03:20:11;101729.59;;;0.61;54.05
78117;BME280;69042;59.120;37.904;2023-04-07T03:22:38;101733.06;;;0.64;53.97
78117;BME280;69042;59.120;37.904;2023-04-07T03:25:07;101729.66;;;0.65;54.33
78117;BME280;69042;59.120;37.904;2023-04-07T03:27:34;101732.22;;;0.65;54.32
78117;BME280;69042;59.120;37.904;2023-04-07T03:30:01;101736.56;;;0.66;54.38
78117;BME280;69042;59.120;37.904;2023-04-07T03:32:28;101738.28;;;0.67;54.44
78117;BME280;69042;59.120;37.904;2023-04-07T03:34:55;101744.38;;;0.70;54.23
78117;BME280;69042;59.120;37.904;2023-04-07T03:37:22;101740.16;;;0.72;54.64
78117;BME280;69042;59.120;37.904;2023-04-07T03:39:48;101739.31;;;0.73;54.76
78117;BME280;69042;59.120;37.904;2023-04-07T03:42:25;101739.34;;;0.75;54.36
78117;BME280;69042;59.120;37.904;2023-04-07T03:44:57;101733.38;;;0.76;54.25
78117;BME280;69042;59.120;37.904;2023-04-07T03:47:23;101732.66;;;0.81;54.88
78117;BME280;69042;59.120;37.904;2023-04-07T03:49:55;101737.00;;;0.84;54.37
78117;BME280;69042;59.120;37.904;2023-04-07T03:52:23;101737.94;;;0.88;54.19
78117;BME280;69042;59.120;37.904;2023-04-07T03:54:53;101733.75;;;0.91;54.67
78117;BME280;69042;59.120;37.904;2023-04-07T03:57:23;101739.78;;;0.93;54.43
78117;BME280;69042;59.120;37.904;2023-04-07T03:59:50;101739.91;;;0.98;54.41
78117;BME280;69042;59.120;37.904;2023-04-07T04:02:17;101745.16;;;1.02;54.46
78117;BME280;69042;59.120;37.904;2023-04-07T04:04:47;101746.97;;;1.07;54.23
78117;BME280;69042;59.120;37.904;2023-04-07T04:07:14;101747.00;;;1.08;54.54
78117;BME280;69042;59.120;37.904;2023-04-07T04:09:47;101745.31;;;1.10;54.38
78117;BME280;69042;59.120;37.904;2023-04-07T04:12:13;101747.13;;;1.13;54.45
78117;BME280;69042;59.120;37.904;2023-04-07T04:14:48;101751.53;;;1.18;54.89
78117;BME280;69042;59.120;37.904;2023-04-07T04:17:16;101744.75;;;1.23;54.50
78117;BME280;69042;59.120;37.904;2023-04-07T04:19:45;101748.25;;;1.25;54.22
78117;BME280;69042;59.120;37.904;2023-04-07T04:22:21;101746.63;;;1.29;54.07
78117;BME280;69042;59.120;37.904;2023-04-07T04:24:51;101753.50;;;1.30;54.24
78117;BME280;69042;59.120;37.904;2023-04-07T04:27:17;101760.41;;;1.31;54.17
78117;BME280;69042;59.120;37.904;2023-04-07T04:29:48;101762.22;;;1.35;53.89
78117;BME280;69042;59.120;37.904;2023-04-07T04:32:17;101758.84;;;1.39;54.00
78117;BME280;69042;59.120;37.904;2023-04-07T04:34:43;101763.28;;;1.45;54.43
78117;BME280;69042;59.120;37.904;2023-04-07T04:37:11;101763.38;;;1.50;54.08
78117;BME280;69042;59.120;37.904;2023-04-07T04:39:40;101762.63;;;1.55;54.06
78117;BME280;69042;59.120;37.904;2023-04-07T04:42:07;101769.63;;;1.61;53.91
78117;BME280;69042;59.120;37.904;2023-04-07T04:44:35;101762.91;;;1.67;54.62
78117;BME280;69042;59.120;37.904;2023-04-07T04:47:03;101766.44;;;1.73;54.12
78117;BME280;69042;59.120;37.904;2023-04-07T04:49:30;101776.00;;;1.78;53.95
78117;BME280;69042;59.120;37.904;2023-04-07T04:52:00;101779.53;;;1.83;54.07
78117;BME280;69042;59.120;37.904;2023-04-07T04:54:27;101769.38;;;1.91;54.35
78117;BME280;69042;59.120;37.904;2023-04-07T04:56:53;101768.72;;;2.01;54.35
78117;BME280;69042;59.120;37.904;2023-04-07T04:59:22;101770.59;;;2.08;54.20
78117;BME280;69042;59.120;37.904;2023-04-07T05:01:56;101768.19;;;2.16;54.39
78117;BME280;69042;59.120;37.904;2023-04-07T05:04:22;101763.97;;;2.21;53.72
78117;BME280;69042;59.120;37.904;2023-04-07T05:06:59;101764.09;;;2.27;53.78
78117;BME280;69042;59.120;37.904;2023-04-07T05:09:27;101770.19;;;2.33;53.59
78117;BME280;69042;59.120;37.904;2023-04-07T05:11:54;101765.13;;;2.37;54.05
78117;BME280;69042;59.120;37.904;2023-04-07T05:14:21;101768.63;;;2.42;53.85
78117;BME280;69042;59.120;37.904;2023-04-07T05:16:53;101768.72;;;2.47;54.45
78117;BME280;69042;59.120;37.904;2023-04-07T05:19:23;101768.84;;;2.53;53.69
78117;BME280;69042;59.120;37.904;2023-04-07T05:21:52;101771.56;;;2.62;53.50
78117;BME280;69042;59.120;37.904;2023-04-07T05:24:20;101760.50;;;2.69;53.56
78117;BME280;69042;59.120;37.904;2023-04-07T05:26:52;101764.13;;;2.79;52.87
78117;BME280;69042;59.120;37.904;2023-04-07T05:29:18;101761.69;;;2.88;53.22
78117;BME280;69042;59.120;37.904;2023-04-07T05:31:44;101761.78;;;2.95;53.20
78117;BME280;69042;59.120;37.904;2023-04-07T05:34:13;101767.06;;;3.04;52.94
78117;BME280;69042;59.120;37.904;2023-04-07T05:36:46;101769.72;;;3.08;53.42
78117;BME280;69042;59.120;37.904;2023-04-07T05:39:13;101764.66;;;3.13;53.15
78117;BME280;69042;59.120;37.904;2023-04-07T05:41:39;101767.34;;;3.21;53.60
78117;BME280;69042;59.120;37.904;2023-04-07T05:44:05;101764.84;;;3.27;52.94
78117;BME280;69042;59.120;37.904;2023-04-07T05:46:36;101768.41;;;3.33;52.58
78117;BME280;69042;59.120;37.904;2023-04-07T05:49:02;101773.63;;;3.40;52.83
78117;BME280;69042;59.120;37.904;2023-04-07T05:51:33;101768.53;;;3.43;52.90
78117;BME280;69042;59.120;37.904;2023-04-07T05:54:03;101770.31;;;3.47;52.67
78117;BME280;69042;59.120;37.904;2023-04-07T05:56:30;101766.06;;;3.52;53.10
78117;BME280;69042;59.120;37.904;2023-04-07T05:58:56;101772.19;;;3.60;52.29
78117;BME280;69042;59.120;37.904;2023-04-07T06:01:24;101766.28;;;3.69;52.48
78117;BME280;69042;59.120;37.904;2023-04-07T06:03:50;101767.22;;;3.75;52.35
78117;BME280;69042;59.120;37.904;2023-04-07T06:06:24;101763.88;;;3.84;52.14
78117;BME280;69042;59.120;37.904;2023-04-07T06:08:51;101768.31;;;3.93;52.35
78117;BME280;69042;59.120;37.904;2023-04-07T06:11:17;101755.47;;;4.02;52.32
78117;BME280;69042;59.120;37.904;2023-04-07T06:13:43;101761.59;;;4.12;51.58
78117;BME280;69042;59.120;37.904;2023-04-07T06:16:09;101759.94;;;4.18;51.70
78117;BME280;69042;59.120;37.904;2023-04-07T06:18:36;101758.31;;;4.27;51.96
78117;BME280;69042;59.120;37.904;2023-04-07T06:21:05;101765.31;;;4.35;51.32
78117;BME280;69042;59.120;37.904;2023-04-07T06:23:31;101765.38;;;4.43;51.67
78117;BME280;69042;59.120;37.904;2023-04-07T06:25:57;101764.63;;;4.50;51.54
78117;BME280;69042;59.120;37.904;2023-04-07T06:28:24;101768.09;;;4.57;51.07
78117;BME280;69042;59.120;37.904;2023-04-07T06:30:50;101761.25;;;4.64;50.84
78117;BME280;69042;59.120;37.904;2023-04-07T06:33:16;101761.31;;;4.70;50.99
78117;BME280;69042;59.120;37.904;2023-04-07T06:35:43;101763.94;;;4.74;51.03
78117;BME280;69042;59.120;37.904;2023-04-07T06:38:09;101767.47;;;4.83;50.87
78117;BME280;69042;59.120;37.904;2023-04-07T06:40:36;101769.25;;;4.87;50.78
78117;BME280;69042;59.120;37.904;2023-04-07T06:43:02;101772.75;;;4.96;50.50
78117;BME280;69042;59.120;37.904;2023-04-07T06:45:37;101760.75;;;5.08;50.54
78117;BME280;69042;59.120;37.904;2023-04-07T06:48:04;101756.50;;;5.17;50.01
78117;BME280;69042;59.120;37.904;2023-04-07T06:50:30;101756.53;;;5.20;50.18
78117;BME280;69042;59.120;37.904;2023-04-07T06:52:56;101765.19;;;5.29;49.86
78117;BME280;69042;59.120;37.904;2023-04-07T06:55:22;101762.63;;;5.33;50.06
78117;BME280;69042;59.120;37.904;2023-04-07T06:57:48;101765.25;;;5.38;49.68
78117;BME280;69042;59.120;37.904;2023-04-07T07:00:17;101763.56;;;5.41;49.74
78117;BME280;69042;59.120;37.904;2023-04-07T07:02:43;101758.41;;;5.46;49.64
78117;BME280;69042;59.120;37.904;2023-04-07T07:05:10;101761.00;;;5.49;49.44
78117;BME280;69042;59.120;37.904;2023-04-07T07:07:36;101754.13;;;5.54;49.19
78117;BME280;69042;59.120;37.904;2023-04-07T07:10:03;101755.00;;;5.58;49.03
78117;BME280;69042;59.120;37.904;2023-04-07T07:12:29;101754.16;;;5.65;48.85
78117;BME280;69042;59.120;37.904;2023-04-07T07:14:55;101757.66;;;5.66;48.91
78117;BME280;69042;59.120;37.904;2023-04-07T07:17:22;101761.13;;;5.71;48.74
78117;BME280;69042;59.120;37.904;2023-04-07T07:29:33;101760.38;;;5.96;48.13
78117;BME280;69042;59.120;37.904;2023-04-07T07:31:59;101759.50;;;5.99;47.81
78117;BME280;69042;59.120;37.904;2023-04-07T07:34:25;101769.91;;;6.02;47.77
78117;BME280;69042;59.120;37.904;2023-04-07T07:36:51;101762.16;;;6.03;47.70
78117;BME280;69042;59.120;37.904;2023-04-07T07:39:17;101764.75;;;6.08;47.73
78117;BME280;69042;59.120;37.904;2023-04-07T07:41:44;101765.66;;;6.15;47.59
78117;BME280;69042;59.120;37.904;2023-04-07T07:44:11;101763.03;;;6.21;47.40
78117;BME280;69042;59.120;37.904;2023-04-07T07:46:37;101768.25;;;6.22;47.27
78117;BME280;69042;59.120;37.904;2023-04-07T07:49:03;101768.25;;;6.25;47.12
78117;BME280;69042;59.120;37.904;2023-04-07T07:51:30;101761.34;;;6.34;47.17
78117;BME280;69042;59.120;37.904;2023-04-07T07:53:56;101758.75;;;6.41;46.76
78117;BME280;69042;59.120;37.904;2023-04-07T07:56:22;101767.44;;;6.45;46.60
78117;BME280;69042;59.120;37.904;2023-04-07T07:58:48;101768.28;;;6.45;46.36
78117;BME280;69042;59.120;37.904;2023-04-07T08:01:14;101752.72;;;6.47;46.31
78117;BME280;69042;59.120;37.904;2023-04-07T08:03:41;101766.56;;;6.51;46.36
78117;BME280;69042;59.120;37.904;2023-04-07T08:06:07;101758.78;;;6.54;46.20
78117;BME280;69042;59.120;37.904;2023-04-07T08:08:34;101762.25;;;6.56;46.01
78117;BME280;69042;59.120;37.904;2023-04-07T08:11:00;101753.59;;;6.58;46.13
78117;BME280;69042;59.120;37.904;2023-04-07T08:13:27;101763.13;;;6.61;45.92
78117;BME280;69042;59.120;37.904;2023-04-07T08:15:53;101763.13;;;6.65;45.62
78117;BME280;69042;59.120;37.904;2023-04-07T08:18:19;101764.00;;;6.64;45.43
78117;BME280;69042;59.120;37.904;2023-04-07T08:20:45;101757.06;;;6.65;45.62
78117;BME280;69042;59.120;37.904;2023-04-07T08:23:11;101763.09;;;6.68;45.47
78117;BME280;69042;59.120;37.904;2023-04-07T08:25:37;101755.31;;;6.73;45.22
78117;BME280;69042;59.120;37.904;2023-04-07T08:28:06;101755.34;;;6.78;45.42
78117;BME280;69042;59.120;37.904;2023-04-07T08:30:32;101751.00;;;6.83;45.35
78117;BME280;69042;59.120;37.904;2023-04-07T08:32:58;101755.31;;;6.88;45.40
78117;BME280;69042;59.120;37.904;2023-04-07T08:35:25;101752.72;;;6.98;45.49
78117;BME280;69042;59.120;37.904;2023-04-07T08:37:51;101750.97;;;7.04;45.06
78117;BME280;69042;59.120;37.904;2023-04-07T08:40:17;101757.91;;;7.12;45.15
78117;BME280;69042;59.120;37.904;2023-04-07T08:42:47;101745.78;;;7.18;45.11
78117;BME280;69042;59.120;37.904;2023-04-07T08:45:16;101753.53;;;7.24;45.02
78117;BME280;69042;59.120;37.904;2023-04-07T08:47:42;101747.47;;;7.28;44.62
78117;BME280;69042;59.120;37.904;2023-04-07T08:50:10;101758.75;;;7.37;44.83
78117;BME280;69042;59.120;37.904;2023-04-07T08:52:55;101751.78;;;7.40;44.79
78117;BME280;69042;59.120;37.904;2023-04-07T08:55:22;101748.31;;;7.46;44.38
78117;BME280;69042;59.120;37.904;2023-04-07T08:57:48;101747.44;;;7.50;44.52
78117;BME280;69042;59.120;37.904;2023-04-07T09:00:16;101754.34;;;7.51;44.63
78117;BME280;69042;59.120;37.904;2023-04-07T09:02:42;101753.47;;;7.57;44.24
78117;BME280;69042;59.120;37.904;2023-04-07T09:05:13;101749.97;;;7.65;44.54
78117;BME280;69042;59.120;37.904;2023-04-07T09:07:39;101746.47;;;7.71;43.92
78117;BME280;69042;59.120;37.904;2023-04-07T09:10:08;101747.31;;;7.78;43.68
78117;BME280;69042;59.120;37.904;2023-04-07T09:12:34;101750.78;;;7.78;43.23
78117;BME280;69042;59.120;37.904;2023-04-07T09:15:01;101736.94;;;7.75;43.36
78117;BME280;69042;59.120;37.904;2023-04-07T09:17:28;101744.75;;;7.75;43.35
78117;BME280;69042;59.120;37.904;2023-04-07T09:19:58;101749.03;;;7.79;43.81
78117;BME280;69042;59.120;37.904;2023-04-07T09:22:40;101747.28;;;7.85;43.34
78117;BME280;69042;59.120;37.904;2023-04-07T09:25:23;101742.03;;;7.95;43.43
78117;BME280;69042;59.120;37.904;2023-04-07T09:30:19;101741.94;;;8.10;43.22
78117;BME280;69042;59.120;37.904;2023-04-07T09:32:45;101736.72;;;8.16;43.26
78117;BME280;69042;59.120;37.904;2023-04-07T09:35:11;101738.41;;;8.23;43.56
78117;BME280;69042;59.120;37.904;2023-04-07T09:37:37;101738.38;;;8.31;43.57
78117;BME280;69042;59.120;37.904;2023-04-07T09:40:04;101727.03;;;8.35;43.46
78117;BME280;69042;59.120;37.904;2023-04-07T09:42:31;101727.03;;;8.43;43.03
78117;BME280;69042;59.120;37.904;2023-04-07T09:45:00;101731.31;;;8.48;42.82
78117;BME280;69042;59.120;37.904;2023-04-07T09:47:27;101727.81;;;8.51;42.78
78117;BME280;69042;59.120;37.904;2023-04-07T09:49:56;101725.22;;;8.54;42.70
78117;BME280;69042;59.120;37.904;2023-04-07T09:52:46;101726.03;;;8.59;42.85
78117;BME280;69042;59.120;37.904;2023-04-07T09:55:12;101725.13;;;8.62;42.69
78117;BME280;69042;59.120;37.904;2023-04-07T09:57:40;101707.75;;;8.62;42.50
78117;BME280;69042;59.120;37.904;2023-04-07T10:00:07;101713.81;;;8.67;42.67
78117;BME280;69042;59.120;37.904;2023-04-07T10:02:38;101715.47;;;8.73;42.38
78117;BME280;69042;59.120;37.904;2023-04-07T10:05:05;101705.91;;;8.77;42.16
78117;BME280;69042;59.120;37.904;2023-04-07T10:07:32;101706.75;;;8.79;42.43
78117;BME280;69042;59.120;37.904;2023-04-07T10:09:58;101704.09;;;8.83;42.46
78117;BME280;69042;59.120;37.904;2023-04-07T10:12:25;101691.88;;;8.88;42.11
78117;BME280;69042;59.120;37.904;2023-04-07T10:14:52;101694.44;;;8.94;42.06
78117;BME280;69042;59.120;37.904;2023-04-07T10:17:20;101695.25;;;8.98;41.93
78117;BME280;69042;59.120;37.904;2023-04-07T10:19:47;101690.84;;;9.05;41.92
78117;BME280;69042;59.120;37.904;2023-04-07T10:22:15;101698.59;;;9.12;41.82
78117;BME280;69042;59.120;37.904;2023-04-07T10:27:27;101689.72;;;9.30;41.72
78117;BME280;69042;59.120;37.904;2023-04-07T10:29:55;101690.53;;;9.34;41.55
78117;BME280;69042;59.120;37.904;2023-04-07T10:32:23;101687.91;;;9.35;41.31
78117;BME280;69042;59.120;37.904;2023-04-07T10:37:16;101695.66;;;9.42;41.13
78117;BME280;69042;59.120;37.904;2023-04-07T10:39:46;101682.59;;;9.45;41.00
78117;BME280;69042;59.120;37.904;2023-04-07T10:45:05;101685.06;;;9.54;41.16
78117;BME280;69042;59.120;37.904;2023-04-07T10:47:31;101682.38;;;9.62;40.86
78117;BME280;69042;59.120;37.904;2023-04-07T10:50:19;101683.97;;;9.70;40.47
78117;BME280;69042;59.120;37.904;2023-04-07T10:52:47;101683.84;;;9.83;40.54
78117;BME280;69042;59.120;37.904;2023-04-07T10:55:37;101690.50;;;10.04;40.41
78117;BME280;69042;59.120;37.904;2023-04-07T11:03:31;101669.94;;;10.89;40.24
78117;BME280;69042;59.120;37.904;2023-04-07T11:06:06;101666.75;;;11.21;39.65
78117;BME280;69042;59.120;37.904;2023-04-07T11:08:34;101667.75;;;11.56;39.63
78117;BME280;69042;59.120;37.904;2023-04-07T11:11:01;101672.28;;;11.90;39.28
78117;BME280;69042;59.120;37.904;2023-04-07T11:13:28;101663.66;;;12.22;38.84
78117;BME280;69042;59.120;37.904;2023-04-07T11:15:54;101659.44;;;12.53;38.62
78117;BME280;69042;59.120;37.904;2023-04-07T11:18:21;101654.16;;;12.88;38.37
78117;BME280;69042;59.120;37.904;2023-04-07T11:20:53;101652.25;;;13.25;37.68
78117;BME280;69042;59.120;37.904;2023-04-07T11:23:21;101648.50;;;13.65;37.77
78117;BME280;69042;59.120;37.904;2023-04-07T11:26:02;101642.03;;;14.03;36.68
78117;BME280;69042;59.120;37.904;2023-04-07T11:28:28;101643.66;;;14.34;36.75
78117;BME280;69042;59.120;37.904;2023-04-07T11:30:55;101637.50;;;14.62;36.45
78117;BME280;69042;59.120;37.904;2023-04-07T11:33:25;101640.03;;;14.90;35.65
78117;BME280;69042;59.120;37.904;2023-04-07T11:35:54;101632.97;;;15.15;35.58
78117;BME280;69042;59.120;37.904;2023-04-07T11:38:23;101645.28;;;15.38;35.26
78117;BME280;69042;59.120;37.904;2023-04-07T11:40:53;101624.47;;;15.54;34.95
78117;BME280;69042;59.120;37.904;2023-04-07T11:46:05;101615.44;;;16.06;34.22
78117;BME280;69042;59.120;37.904;2023-04-07T11:48:33;101618.94;;;16.49;34.94
78117;BME280;69042;59.120;37.904;2023-04-07T11:51:00;101615.28;;;16.92;34.63
78117;BME280;69042;59.120;37.904;2023-04-07T11:53:35;101616.28;;;17.48;34.22
78117;BME280;69042;59.120;37.904;2023-04-07T11:58:37;101604.09;;;19.04;33.63
78117;BME280;69042;59.120;37.904;2023-04-07T12:01:05;101599.59;;;19.85;32.94
78117;BME280;69042;59.120;37.904;2023-04-07T12:03:35;101595.31;;;20.73;32.01
78117;BME280;69042;59.120;37.904;2023-04-07T12:06:03;101602.88;;;21.51;31.30
78117;BME280;69042;59.120;37.904;2023-04-07T12:08:39;101588.41;;;22.10;29.43
78117;BME280;69042;59.120;37.904;2023-04-07T12:11:06;101597.41;;;22.47;29.15
78117;BME280;69042;59.120;37.904;2023-04-07T12:13:33;101589.31;;;22.87;28.56
78117;BME280;69042;59.120;37.904;2023-04-07T12:16:00;101590.59;;;23.44;28.15
78117;BME280;69042;59.120;37.904;2023-04-07T12:18:27;101594.56;;;23.99;27.57
78117;BME280;69042;59.120;37.904;2023-04-07T12:20:53;101590.19;;;24.45;26.64
78117;BME280;69042;59.120;37.904;2023-04-07T12:23:21;101577.78;;;25.02;26.02
78117;BME280;69042;59.120;37.904;2023-04-07T12:25:47;101579.41;;;25.48;25.21
78117;BME280;69042;59.120;37.904;2023-04-07T12:28:13;101564.47;;;25.77;24.48
78117;BME280;69042;59.120;37.904;2023-04-07T12:30:40;101571.66;;;25.88;23.59
78117;BME280;69042;59.120;37.904;2023-04-07T12:33:07;101572.19;;;26.03;23.78
78117;BME280;69042;59.120;37.904;2023-04-07T12:35:33;101568.53;;;26.25;23.63
78117;BME280;69042;59.120;37.904;2023-04-07T12:37:59;101560.59;;;26.45;23.00
78117;BME280;69042;59.120;37.904;2023-04-07T12:40:25;101569.25;;;26.48;22.83
78117;BME280;69042;59.120;37.904;2023-04-07T12:42:52;101556.66;;;26.70;22.25
78117;BME280;69042;59.120;37.904;2023-04-07T12:45:18;101563.44;;;27.05;22.06
78117;BME280;69042;59.120;37.904;2023-04-07T12:47:44;101564.31;;;27.15;21.77
78117;BME280;69042;59.120;37.904;2023-04-07T12:50:10;101565.78;;;27.29;21.65
78117;BME280;69042;59.120;37.904;2023-04-07T12:52:36;101564.25;;;27.36;21.46
78117;BME280;69042;59.120;37.904;2023-04-07T12:55:03;101549.28;;;27.53;20.82
78117;BME280;69042;59.120;37.904;2023-04-07T12:57:29;101548.72;;;27.59;20.64
78117;BME280;69042;59.120;37.904;2023-04-07T12:59:55;101552.41;;;27.68;20.50
78117;BME280;69042;59.120;37.904;2023-04-07T13:02:21;101557.97;;;27.86;20.52
78117;BME280;69042;59.120;37.904;2023-04-07T13:04:47;101557.66;;;28.08;20.40
78117;BME280;69042;59.120;37.904;2023-04-07T13:07:14;101550.94;;;28.32;20.17
78117;BME280;69042;59.120;37.904;2023-04-07T13:09:40;101548.56;;;28.29;19.82
78117;BME280;69042;59.120;37.904;2023-04-07T13:12:10;101547.28;;;28.23;19.58
78117;BME280;69042;59.120;37.904;2023-04-07T13:14:37;101543.50;;;28.06;19.60
78117;BME280;69042;59.120;37.904;2023-04-07T13:17:04;101551.84;;;27.83;19.48
78117;BME280;69042;59.120;37.904;2023-04-07T13:19:31;101556.13;;;27.86;19.58
78117;BME280;69042;59.120;37.904;2023-04-07T13:21:57;101548.47;;;27.91;19.32
78117;BME280;69042;59.120;37.904;2023-04-07T13:24:23;101550.28;;;28.00;19.54
78117;BME280;69042;59.120;37.904;2023-04-07T13:26:50;101540.38;;;28.20;19.29